Time;durP1;ratioP1;P1;durP2;ratioP2;P2;SDS_P1;SDS_P2;PMS_P1;PMS_P2;Temp;Humidity;BMP_temperature;BMP_pressure;BME280_temperature;BME280_humidity;BME280_pressure;Samples;Min_cycle;Max_cycle;Signal;HPM_P1;HPM_P2
2023/08/13 00:02:23;;;;;;;1.70;0.87;;;;;;;16.12;84.30;101640.59;5056882;28;20056;-92
2023/08/13 00:04:49;;;;;;;1.58;0.93;;;;;;;16.10;83.92;101638.94;5057573;28;20021;-93
2023/08/13 00:07:14;;;;;;;2.43;1.30;;;;;;;16.04;84.78;101632.94;5056739;28;20523;-93
2023/08/13 00:09:42;;;;;;;0.80;0.80;;;;;;;16.06;84.45;101640.78;5061691;28;20021;-93
2023/08/13 00:12:08;;;;;;;1.10;1.00;;;;;;;16.01;84.25;101632.16;5057699;28;20044;-93
2023/08/13 00:14:33;;;;;;;1.03;0.90;;;;;;;15.98;85.19;101627.03;5056689;28;20044;-93
2023/08/13 00:16:58;;;;;;;1.70;1.20;;;;;;;15.97;84.90;101627.94;5056925;28;20029;-94
2023/08/13 00:19:24;;;;;;;1.37;1.27;;;;;;;15.93;85.34;101626.28;5056465;28;20033;-94
2023/08/13 00:21:49;;;;;;;1.40;1.00;;;;;;;15.89;84.85;101623.72;5055950;28;20106;-94
2023/08/13 00:24:14;;;;;;;1.90;0.90;;;;;;;15.92;84.78;101629.78;5055328;28;20025;-94
2023/08/13 00:26:40;;;;;;;0.80;0.80;;;;;;;15.88;85.98;101626.38;5055434;28;20033;-93
2023/08/13 00:29:06;;;;;;;1.08;0.90;;;;;;;15.85;86.75;101629.06;5055202;28;20017;-93
2023/08/13 00:31:32;;;;;;;2.50;1.13;;;;;;;15.80;86.81;101621.31;5052470;28;20118;-94
2023/08/13 00:33:57;;;;;;;1.10;0.93;;;;;;;15.77;85.66;101620.53;5055168;28;20016;-93
2023/08/13 00:36:23;;;;;;;0.93;0.80;;;;;;;15.74;85.99;101624.94;5055391;28;20029;-94
2023/08/13 00:38:48;;;;;;;0.83;0.80;;;;;;;15.74;85.47;101621.47;5055489;28;20404;-93
2023/08/13 00:41:13;;;;;;;0.87;0.70;;;;;;;15.72;85.23;101618.03;5054882;28;20025;-94
2023/08/13 00:43:39;;;;;;;0.67;0.67;;;;;;;15.71;85.42;101619.78;5054859;28;20473;-94
2023/08/13 00:46:06;;;;;;;1.55;0.80;;;;;;;15.70;85.37;101614.59;5054784;28;20163;-93
2023/08/13 00:48:31;;;;;;;;;;;;;;;15.71;86.07;101618.91;5055720;28;20021;-93
2023/08/13 00:50:58;;;;;;;1.20;0.83;;;;;;;15.65;85.64;101614.69;5076744;28;19932;-93
2023/08/13 00:53:24;;;;;;;0.95;0.90;;;;;;;15.65;85.79;101616.47;5056371;28;20033;-93
2023/08/13 00:55:50;;;;;;;0.88;0.70;;;;;;;15.64;85.98;101615.59;5054625;28;20035;-93
2023/08/13 00:58:16;;;;;;;1.43;0.80;;;;;;;15.60;87.04;101612.19;5054164;28;20112;-94
2023/08/13 01:00:41;;;;;;;1.13;1.00;;;;;;;15.55;86.43;101613.19;5054921;28;20523;-93
2023/08/13 01:03:07;;;;;;;1.03;1.00;;;;;;;15.54;86.37;101612.31;5054508;28;20021;-93
2023/08/13 01:06:02;;;;;;;1.27;1.17;;;;;;;15.51;86.91;101615.03;5054618;28;20055;-93
2023/08/13 01:08:41;;;;;;;0.70;0.70;;;;;;;15.48;86.47;101620.34;5003617;28;20477;-94
2023/08/13 01:11:17;;;;;;;1.15;0.82;;;;;;;15.46;86.26;101621.28;5054946;28;20020;-94
2023/08/13 01:13:46;;;;;;;1.15;0.75;;;;;;;15.44;86.67;101616.06;5055441;28;20033;-94
2023/08/13 01:16:13;;;;;;;0.75;0.75;;;;;;;15.38;86.35;101610.97;5054618;28;20020;-92
2023/08/13 01:18:40;;;;;;;0.73;0.73;;;;;;;15.39;87.25;101617.94;5054996;28;20043;-93
2023/08/13 01:21:05;;;;;;;1.20;0.77;;;;;;;15.34;87.30;101615.44;5053873;28;20045;-92
2023/08/13 01:23:30;;;;;;;0.93;0.77;;;;;;;15.35;86.54;101618.88;5054451;28;20029;-94
2023/08/13 01:26:07;;;;;;;0.60;0.60;;;;;;;15.31;87.68;101619.88;5054190;28;20048;-93
2023/08/13 01:29:01;;;;;;;;;;;;;;;15.29;87.68;101622.50;5055712;28;20013;-93
2023/08/13 01:31:30;;;;;;;0.85;0.80;;;;;;;15.28;87.76;101623.41;5032462;28;19913;-94
2023/08/13 01:33:58;;;;;;;0.68;0.60;;;;;;;15.24;87.17;101620.00;5054354;28;20033;-94
2023/08/13 01:36:25;;;;;;;1.20;0.80;;;;;;;15.20;87.57;101620.94;5053798;28;20385;-93
2023/08/13 01:38:52;;;;;;;1.20;0.75;;;;;;;15.18;88.13;101621.88;5054359;28;20025;-94
2023/08/13 01:41:18;;;;;;;0.75;0.73;;;;;;;15.14;88.50;101613.25;5054014;28;20025;-95
2023/08/13 01:43:43;;;;;;;2.70;1.20;;;;;;;15.13;90.06;101627.22;5054318;28;20029;-94
2023/08/13 01:46:09;;;;;;;1.30;0.90;;;;;;;15.09;88.76;101628.16;5057989;28;20021;-94
2023/08/13 01:48:34;;;;;;;1.23;0.90;;;;;;;15.08;89.57;101629.94;5060969;28;20029;-92
2023/08/13 01:50:59;;;;;;;2.53;1.30;;;;;;;15.02;89.71;101621.38;5066319;28;20482;-94
2023/08/13 01:53:25;;;;;;;2.07;1.17;;;;;;;14.98;89.91;101616.19;5060484;28;20033;-93
2023/08/13 01:55:50;;;;;;;1.17;1.00;;;;;;;15.03;89.13;101623.09;5053715;28;20059;-94
2023/08/13 01:58:15;;;;;;;0.90;0.80;;;;;;;15.01;90.17;101625.75;5053950;28;20075;-93
2023/08/13 02:00:41;;;;;;;3.03;1.20;;;;;;;15.00;89.77;101624.03;5053853;28;20029;-93
2023/08/13 02:03:06;;;;;;;1.83;1.20;;;;;;;14.97;90.15;101626.69;5054335;28;20025;-93
2023/08/13 02:05:31;;;;;;;1.23;0.97;;;;;;;14.94;89.64;101617.16;5053909;28;20068;-94
2023/08/13 02:07:59;;;;;;;0.63;0.63;;;;;;;14.96;89.63;101623.22;5054281;28;20470;-94
2023/08/13 02:10:25;;;;;;;0.80;0.80;;;;;;;14.95;89.14;101626.75;5054540;28;20052;-93
2023/08/13 02:12:50;;;;;;;0.83;0.70;;;;;;;14.92;89.36;101621.56;5054289;28;20024;-93
2023/08/13 02:15:15;;;;;;;0.40;0.40;;;;;;;14.96;90.76;101624.97;5053742;28;20010;-93
2023/08/13 02:17:40;;;;;;;0.57;0.57;;;;;;;14.90;89.20;101612.88;5054319;28;20527;-93
2023/08/13 02:20:09;;;;;;;1.30;0.80;;;;;;;14.94;89.64;101613.69;5054824;28;20462;-93
2023/08/13 02:22:34;;;;;;;1.42;0.68;;;;;;;14.94;89.39;101616.28;5054210;28;20044;-93
2023/08/13 02:25:00;;;;;;;0.83;0.53;;;;;;;14.91;89.98;101617.22;5053615;28;20029;-93
2023/08/13 02:27:25;;;;;;;0.50;0.50;;;;;;;14.90;90.32;101612.03;5053481;28;20017;-93
2023/08/13 02:29:50;;;;;;;0.50;0.50;;;;;;;14.88;90.29;101608.59;5053914;28;20393;-93
2023/08/13 02:32:15;;;;;;;0.53;0.53;;;;;;;14.88;89.36;101609.44;5054525;28;20071;-94
2023/08/13 02:34:46;;;;;;;0.40;0.40;;;;;;;14.89;89.80;101612.94;5053727;28;20083;-93
2023/08/13 02:37:12;;;;;;;0.20;0.20;;;;;;;14.87;90.44;101607.72;5053933;28;20036;-92
2023/08/13 02:39:37;;;;;;;0.40;0.30;;;;;;;14.82;90.17;101604.34;5057701;28;20533;-93
2023/08/13 02:42:02;;;;;;;0.60;0.43;;;;;;;14.82;89.59;101605.19;5057132;28;20067;-93
2023/08/13 02:44:28;;;;;;;0.60;0.60;;;;;;;14.81;89.35;101603.47;5057729;28;20021;-93
2023/08/13 02:46:53;;;;;;;0.73;0.47;;;;;;;14.80;90.42;101611.38;5058013;28;20108;-93
2023/08/13 02:49:18;;;;;;;0.47;0.47;;;;;;;14.76;89.65;101607.09;5057691;28;20052;-93
2023/08/13 02:51:44;;;;;;;0.73;0.57;;;;;;;14.78;89.48;101607.91;5057282;28;20087;-93
2023/08/13 02:54:10;;;;;;;1.60;0.70;;;;;;;14.76;90.67;101609.69;5057912;28;20024;-93
2023/08/13 02:56:35;;;;;;;0.70;0.60;;;;;;;14.76;89.88;101604.47;5057103;28;20054;-93
2023/08/13 02:59:01;;;;;;;0.43;0.40;;;;;;;14.71;90.08;101594.13;5057208;28;20458;-93
2023/08/13 03:01:26;;;;;;;0.50;0.50;;;;;;;14.74;89.77;101603.66;5057320;28;20032;-93
2023/08/13 03:03:54;;;;;;;0.77;0.73;;;;;;;14.71;90.07;101598.50;5057430;28;20029;-93
2023/08/13 03:06:21;;;;;;;0.50;0.47;;;;;;;14.67;90.24;101595.94;5056919;28;20057;-93
2023/08/13 03:08:46;;;;;;;0.98;0.77;;;;;;;14.64;90.03;101592.50;5056836;28;20478;-93
2023/08/13 03:11:11;;;;;;;0.80;0.63;;;;;;;14.65;90.18;101602.91;5056685;28;20024;-93
2023/08/13 03:13:37;;;;;;;0.93;0.60;;;;;;;14.63;90.33;101607.31;5057154;28;20036;-92
2023/08/13 03:16:02;;;;;;;0.60;0.60;;;;;;;14.60;91.41;101610.00;5057042;28;20079;-93
2023/08/13 03:18:28;;;;;;;0.70;0.70;;;;;;;14.54;91.88;101601.41;5057013;28;20044;-92
2023/08/13 03:20:53;;;;;;;1.23;0.87;;;;;;;14.48;90.88;101594.56;5056571;28;20025;-93
2023/08/13 03:23:18;;;;;;;0.77;0.70;;;;;;;14.50;90.73;101598.84;5056279;28;20131;-92
2023/08/13 03:25:43;;;;;;;0.60;0.60;;;;;;;14.48;91.66;101600.63;5056662;28;20028;-90
2023/08/13 03:28:09;;;;;;;1.17;0.70;;;;;;;14.48;91.62;101613.69;5055904;28;20128;-90
2023/08/13 03:30:34;;;;;;;0.77;0.60;;;;;;;14.44;91.00;101595.50;5055619;28;20040;-90
2023/08/13 03:32:59;;;;;;;0.70;0.70;;;;;;;14.41;91.07;101596.44;5056377;28;20029;-90
2023/08/13 03:35:25;;;;;;;0.50;0.50;;;;;;;14.43;90.58;101601.59;5056557;28;20051;-91
2023/08/13 03:37:50;;;;;;;0.70;0.70;;;;;;;14.43;91.33;101606.84;5056082;28;20025;-91
2023/08/13 03:40:16;;;;;;;0.70;0.60;;;;;;;14.41;91.18;101603.41;5056361;28;20029;-90
2023/08/13 03:42:44;;;;;;;1.20;0.70;;;;;;;14.40;91.18;101596.47;5056061;28;20021;-91
2023/08/13 03:45:10;;;;;;;0.50;0.50;;;;;;;14.40;91.40;101599.09;5055970;28;20021;-90
2023/08/13 03:47:36;;;;;;;0.60;0.60;;;;;;;14.38;91.46;101598.25;5059284;28;20067;-90
2023/08/13 03:50:02;;;;;;;0.40;0.40;;;;;;;14.34;91.47;101598.28;5056183;28;20033;-90
2023/08/13 03:52:28;;;;;;;0.50;0.50;;;;;;;14.35;91.71;101601.78;5055657;28;20032;-90
2023/08/13 03:54:53;;;;;;;0.33;0.33;;;;;;;14.32;91.58;101597.47;5055540;28;20036;-90
2023/08/13 03:57:18;;;;;;;0.37;0.37;;;;;;;14.28;91.87;101594.94;5056074;28;20025;-90
2023/08/13 03:59:44;;;;;;;0.73;0.50;;;;;;;14.31;91.67;101606.19;5055651;28;20029;-91
2023/08/13 04:02:09;;;;;;;0.67;0.67;;;;;;;14.33;91.77;101608.78;5055264;28;20071;-91
2023/08/13 04:04:34;;;;;;;0.60;0.40;;;;;;;14.33;92.66;101607.00;5055906;28;20053;-90
2023/08/13 04:07:03;;;;;;;1.20;0.60;;;;;;;14.31;92.01;101621.84;5056082;28;20040;-90
2023/08/13 04:09:28;;;;;;;0.82;0.82;;;;;;;14.32;91.96;101615.72;5055935;28;20473;-90
2023/08/13 04:11:53;;;;;;;0.53;0.50;;;;;;;14.33;93.15;101627.06;5055592;28;20036;-89
2023/08/13 04:14:19;;;;;;;1.37;0.80;;;;;;;14.26;92.50;101621.09;5055363;28;20209;-90
2023/08/13 04:16:44;;;;;;;0.50;0.50;;;;;;;14.30;92.73;101625.34;5055986;28;20648;-90
2023/08/13 04:19:09;;;;;;;1.17;0.60;;;;;;;14.30;92.35;101621.88;5055335;28;20032;-95
2023/08/13 04:21:35;;;;;;;0.57;0.57;;;;;;;14.27;92.74;101611.47;5058234;28;20092;-91
2023/08/13 04:24:00;;;;;;;0.57;0.40;;;;;;;14.28;93.09;101615.81;5065297;28;20028;-90
2023/08/13 04:26:25;;;;;;;0.93;0.70;;;;;;;14.29;92.60;101615.81;5069622;28;20084;-94
2023/08/13 04:28:54;;;;;;;1.30;0.73;;;;;;;14.30;93.48;101627.09;5070334;28;20052;-91
2023/08/13 04:31:20;;;;;;;0.70;0.68;;;;;;;14.29;92.77;101621.03;5055540;28;20044;-91
2023/08/13 04:33:47;;;;;;;0.68;0.68;;;;;;;14.30;92.64;101617.50;5054942;28;20104;-94
2023/08/13 04:36:12;;;;;;;0.82;0.65;;;;;;;14.31;92.67;101618.38;5055321;28;20029;-94
2023/08/13 04:38:37;;;;;;;0.53;0.50;;;;;;;14.32;93.28;101613.13;5055574;28;20087;-94
2023/08/13 04:41:03;;;;;;;0.73;0.70;;;;;;;14.32;93.21;101607.91;5055358;28;20025;-94
2023/08/13 04:43:28;;;;;;;0.50;0.50;;;;;;;14.32;93.83;101609.66;5055355;28;20036;-94
2023/08/13 04:45:54;;;;;;;0.77;0.60;;;;;;;14.31;95.00;101605.31;5054966;28;20063;-93
2023/08/13 04:48:42;;;;;;;0.70;0.60;;;;;;;14.34;94.40;101611.34;5055101;28;20036;-94
2023/08/13 04:51:08;;;;;;;2.10;0.85;;;;;;;14.35;94.68;101614.84;5055165;28;20029;-95
2023/08/13 04:53:34;;;;;;;0.30;0.30;;;;;;;14.35;94.09;101620.06;5055390;28;20074;-94
2023/08/13 04:55:59;;;;;;;0.60;0.60;;;;;;;14.39;94.49;101624.31;5054758;28;20033;-95
2023/08/13 04:58:24;;;;;;;0.50;0.50;;;;;;;14.41;94.57;101627.75;5054148;28;20454;-95
2023/08/13 05:00:50;;;;;;;0.97;0.80;;;;;;;14.45;93.96;101624.22;5054798;28;20150;-94
2023/08/13 05:03:15;;;;;;;0.60;0.60;;;;;;;14.49;94.28;101625.00;5054692;28;20060;-94
2023/08/13 05:05:40;;;;;;;0.57;0.50;;;;;;;14.46;93.96;101609.41;5055364;28;20033;-94
2023/08/13 05:08:05;;;;;;;0.60;0.60;;;;;;;14.54;95.58;101615.31;5054476;28;20025;-94
2023/08/13 05:10:32;;;;;;;0.50;0.50;;;;;;;14.55;94.62;101605.75;5054746;28;20021;-94
2023/08/13 05:13:01;;;;;;;1.00;0.60;;;;;;;14.60;94.99;101611.72;5055468;28;20032;-95
2023/08/13 05:15:26;;;;;;;1.30;0.88;;;;;;;14.64;95.99;101606.41;5054727;28;20048;-94
2023/08/13 05:17:52;;;;;;;0.60;0.60;;;;;;;14.69;94.22;101608.09;5054929;28;20531;-94
2023/08/13 05:20:17;;;;;;;0.80;0.80;;;;;;;14.70;95.11;101599.38;5054268;28;20021;-94
2023/08/13 05:22:42;;;;;;;1.13;1.00;;;;;;;14.74;95.02;101607.13;5054362;28;20083;-95
2023/08/13 05:25:08;;;;;;;0.80;0.80;;;;;;;14.76;95.17;101613.19;5054010;28;20021;-94
2023/08/13 05:27:33;;;;;;;1.53;0.90;;;;;;;14.78;95.80;101608.78;5054555;28;20037;-94
2023/08/13 05:29:59;;;;;;;1.03;0.93;;;;;;;14.80;96.57;101621.81;5054131;28;20025;-94
2023/08/13 05:32:25;;;;;;;0.70;0.70;;;;;;;14.79;97.24;101609.63;5054426;28;20040;-96
2023/08/13 05:34:51;;;;;;;1.08;0.98;;;;;;;14.81;96.23;101619.16;5054467;28;20629;-93
2023/08/13 05:37:22;;;;;;;1.43;1.13;;;;;;;14.86;96.12;101620.84;5054047;28;20078;-94
2023/08/13 05:39:47;;;;;;;3.20;1.30;;;;;;;14.85;96.21;101619.97;5054044;28;20111;-93
2023/08/13 05:42:12;;;;;;;1.87;1.30;;;;;;;14.90;95.80;101628.56;5054606;28;20080;-94
2023/08/13 05:44:38;;;;;;;1.10;0.93;;;;;;;14.90;96.61;101627.72;5054382;28;20029;-94
2023/08/13 05:47:04;;;;;;;1.97;1.00;;;;;;;14.94;96.25;101622.41;5054191;28;20025;-95
2023/08/13 05:49:29;;;;;;;1.60;1.00;;;;;;;14.94;97.10;101613.69;5054335;28;20037;-94
2023/08/13 05:51:55;;;;;;;1.70;1.30;;;;;;;15.03;97.16;101617.84;5054415;28;20484;-94
2023/08/13 05:54:20;;;;;;;1.20;1.10;;;;;;;15.12;97.12;101630.72;5053775;28;20082;-95
2023/08/13 05:56:47;;;;;;;0.97;0.97;;;;;;;15.20;98.36;101625.34;5054279;28;20063;-94
2023/08/13 05:59:12;;;;;;;;;;;;;;;15.24;98.42;101640.06;5054165;28;20027;-95
2023/08/13 06:01:37;;;;;;;2.33;1.50;;;;;;;15.23;99.16;101630.50;5054646;28;19913;-96
2023/08/13 06:04:03;;;;;;;3.80;1.70;;;;;;;15.29;98.47;101633.84;5054646;28;20020;-93
2023/08/13 06:06:28;;;;;;;3.50;1.73;;;;;;;15.38;98.48;101637.13;5054209;28;20112;-94
2023/08/13 06:08:54;;;;;;;2.53;1.70;;;;;;;15.45;98.12;101630.84;5053942;28;20063;-95
2023/08/13 06:11:19;;;;;;;1.57;1.40;;;;;;;15.53;97.30;101633.31;5053989;28;20033;-95
2023/08/13 06:13:45;;;;;;;2.20;1.67;;;;;;;15.59;98.18;101634.03;5063855;22;20593;-95
2023/08/13 06:16:10;;;;;;;2.23;1.60;;;;;;;15.66;97.44;101639.09;5058139;28;20033;-95
2023/08/13 06:18:35;;;;;;;2.80;1.70;;;;;;;15.73;98.34;101641.53;5057395;28;20029;-95
2023/08/13 06:21:03;;;;;;;2.80;1.87;;;;;;;15.82;98.82;101644.84;5058506;28;20025;-95
2023/08/13 06:23:29;;;;;;;2.92;1.80;;;;;;;15.96;98.86;101642.75;5057898;28;20056;-96
2023/08/13 06:25:54;;;;;;;1.70;1.50;;;;;;;16.02;97.91;101632.16;5057645;28;20033;-96
2023/08/13 06:28:25;;;;;;;2.40;1.70;;;;;;;16.16;97.92;101639.63;5065167;28;20021;-95
2023/08/13 06:30:50;;;;;;;4.25;1.90;;;;;;;16.25;96.78;101635.06;5074822;28;20086;-96
2023/08/13 06:33:16;;;;;;;4.53;1.90;;;;;;;16.30;97.72;101635.81;5060999;28;20024;-94
2023/08/13 06:35:47;;;;;;;2.77;1.80;;;;;;;16.34;96.90;101634.81;5061220;28;20021;-93
2023/08/13 06:38:15;;;;;;;2.03;1.50;;;;;;;16.46;96.72;101637.09;5073913;28;20021;-91
2023/08/13 06:40:44;;;;;;;1.52;1.42;;;;;;;16.53;96.15;101637.78;5058103;28;20086;-94
2023/08/13 06:43:10;;;;;;;2.88;1.40;;;;;;;16.62;96.45;101642.75;5057194;28;20048;-91
2023/08/13 06:45:36;;;;;;;2.78;1.35;;;;;;;16.72;95.76;101638.13;5057408;28;20029;-96
2023/08/13 06:48:04;;;;;;;4.00;1.57;;;;;;;16.87;95.68;101635.97;5057157;28;20100;-91
2023/08/13 06:50:30;;;;;;;2.65;1.55;;;;;;;16.98;95.31;101636.56;5057688;28;20060;-94
2023/08/13 06:52:55;;;;;;;3.40;1.63;;;;;;;17.07;94.88;101648.50;5057397;28;20029;-93
2023/08/13 06:55:20;;;;;;;1.93;1.50;;;;;;;17.11;95.26;101643.13;5057434;28;20060;-92
2023/08/13 06:57:46;;;;;;;1.77;1.40;;;;;;;17.12;94.99;101636.97;5060667;28;20036;-92
2023/08/13 07:00:14;;;;;;;1.60;1.30;;;;;;;17.16;94.83;101636.91;5066570;28;20076;-92
2023/08/13 07:02:40;;;;;;;1.90;1.52;;;;;;;17.21;94.86;101638.47;5068445;28;20047;-94
2023/08/13 07:05:06;;;;;;;1.67;1.20;;;;;;;17.25;94.59;101636.63;5063931;28;20448;-89
2023/08/13 07:07:33;;;;;;;1.20;1.10;;;;;;;17.31;95.06;101636.44;5058520;28;20534;-88
2023/08/13 07:09:59;;;;;;;1.80;1.20;;;;;;;17.41;94.81;101639.63;5064338;28;20488;-94
2023/08/13 07:12:25;;;;;;;1.67;1.05;;;;;;;17.51;94.48;101643.66;5058163;28;20021;-96
2023/08/13 07:14:50;;;;;;;1.43;1.20;;;;;;;17.61;94.25;101636.38;5058003;28;20036;-96
2023/08/13 07:17:15;;;;;;;1.37;1.27;;;;;;;17.75;93.46;101630.66;5056932;28;20037;-94
2023/08/13 07:19:41;;;;;;;1.77;1.07;;;;;;;17.82;93.01;101629.56;5056828;28;20059;-96
2023/08/13 07:22:06;;;;;;;1.23;1.13;;;;;;;17.93;93.95;101630.97;5055492;28;20060;-88
2023/08/13 07:24:34;;;;;;;3.80;1.60;;;;;;;18.03;91.72;101621.91;5054976;28;20029;-94
2023/08/13 07:26:59;;;;;;;3.28;1.63;;;;;;;18.17;93.44;101624.91;5057333;28;20121;-95
2023/08/13 07:29:25;;;;;;;2.00;1.50;;;;;;;18.35;92.96;101631.28;5056216;28;20053;-86
2023/08/13 07:31:50;;;;;;;4.10;1.63;;;;;;;18.55;91.70;101634.97;5055506;28;20064;-87
2023/08/13 07:34:16;;;;;;;2.90;1.53;;;;;;;18.73;91.30;101635.19;5056147;28;20025;-93
2023/08/13 07:36:41;;;;;;;1.50;1.30;;;;;;;18.88;90.61;101637.28;5056061;28;20489;-92
2023/08/13 07:39:09;;;;;;;2.20;1.47;;;;;;;19.02;89.57;101625.41;5056753;28;20100;-92
2023/08/13 07:41:34;;;;;;;2.08;1.60;;;;;;;19.18;88.25;101631.78;5063931;22;20057;-91
2023/08/13 07:43:59;;;;;;;3.80;1.63;;;;;;;19.22;88.22;101625.47;5056297;28;20031;-92
2023/08/13 07:46:25;;;;;;;4.07;1.77;;;;;;;19.32;89.07;101627.75;5056380;28;20023;-93
2023/08/13 07:48:50;;;;;;;3.37;1.50;;;;;;;19.42;88.82;101623.81;5056186;28;20025;-94
2023/08/13 07:51:15;;;;;;;2.93;1.30;;;;;;;19.62;89.61;101635.31;5056008;28;20082;-93
2023/08/13 07:53:41;;;;;;;1.90;1.00;;;;;;;19.76;87.96;101632.97;5056404;28;20098;-92
2023/08/13 07:56:09;;;;;;;1.73;1.20;;;;;;;19.80;87.83;101633.69;5055853;28;20526;-92
2023/08/13 07:58:38;;;;;;;1.52;1.17;;;;;;;19.85;87.78;101629.13;5056107;28;20029;-93
2023/08/13 08:01:03;;;;;;;1.98;1.00;;;;;;;19.96;88.56;101626.03;5055722;28;20103;-93
2023/08/13 08:03:28;;;;;;;0.93;0.90;;;;;;;20.12;88.33;101619.22;5055931;28;20183;-93
2023/08/13 08:05:54;;;;;;;0.77;0.77;;;;;;;20.36;88.52;101629.59;5056536;28;20439;-92
2023/08/13 08:08:19;;;;;;;1.13;0.80;;;;;;;20.48;87.37;101617.66;5055745;28;20036;-93
2023/08/13 08:10:44;;;;;;;0.73;0.73;;;;;;;20.57;87.53;101625.13;5056187;28;20028;-93
2023/08/13 08:13:10;;;;;;;0.40;0.40;;;;;;;20.70;87.61;101625.44;5056038;28;20021;-93
2023/08/13 08:15:35;;;;;;;0.70;0.70;;;;;;;20.84;84.68;101624.84;5055874;28;20017;-93
2023/08/13 08:18:01;;;;;;;1.33;0.87;;;;;;;20.86;82.60;101625.63;5056278;28;20029;-93
2023/08/13 08:20:27;;;;;;;2.80;1.40;;;;;;;20.83;83.88;101621.34;5055645;28;20031;-93
2023/08/13 08:22:52;;;;;;;;;;;;;;;20.83;79.15;101626.59;5055488;28;20496;-92
2023/08/13 08:25:19;;;;;;;;;;;;;;;20.84;82.76;101622.22;5055891;28;19919;-93
2023/08/13 08:27:44;;;;;;;2.35;1.20;;;;;;;20.79;83.61;101614.50;5055815;28;19920;-93
2023/08/13 08:30:10;;;;;;;1.57;1.10;;;;;;;20.85;83.49;101615.13;5055561;28;20029;-92
2023/08/13 08:32:45;;;;;;;2.28;1.15;;;;;;;20.79;81.88;101611.88;5055577;28;20025;-92
2023/08/13 08:35:10;;;;;;;3.45;1.60;;;;;;;20.72;80.84;101606.91;5055020;28;20021;-92
2023/08/13 08:37:36;;;;;;;1.77;1.20;;;;;;;20.74;81.38;101623.53;5055419;28;20031;-93
2023/08/13 08:40:03;;;;;;;3.20;1.33;;;;;;;20.68;80.75;101614.13;5055103;28;20192;-92
2023/08/13 08:42:30;;;;;;;3.22;1.48;;;;;;;20.77;81.85;101615.50;5054664;28;20037;-93
2023/08/13 08:44:58;;;;;;;3.35;1.60;;;;;;;20.77;80.78;101613.72;5055346;28;20033;-92
2023/08/13 08:47:24;;;;;;;2.10;1.40;;;;;;;20.83;81.50;101615.22;5054778;28;20025;-92
2023/08/13 08:49:51;;;;;;;;;;;;;;;20.88;80.76;101618.50;5055576;28;20029;-93
2023/08/13 08:52:17;;;;;;;6.15;1.60;;;;;;;20.81;77.73;101611.78;5054798;28;19912;-91
2023/08/13 08:54:43;;;;;;;5.10;1.70;;;;;;;20.78;79.08;101620.72;5054917;28;20029;-92
2023/08/13 08:57:08;;;;;;;2.75;1.25;;;;;;;20.88;80.24;101628.19;5054934;28;20067;-93
2023/08/13 08:59:35;;;;;;;2.30;1.30;;;;;;;20.91;79.13;101612.22;5055062;28;20112;-92
2023/08/13 09:02:01;;;;;;;3.65;1.60;;;;;;;21.02;80.30;101606.44;5054536;28;20037;-92
2023/08/13 09:04:30;;;;;;;3.03;1.63;;;;;;;21.07;78.46;101597.38;5063408;22;20040;-94
2023/08/13 09:07:05;;;;;;;2.83;1.77;;;;;;;21.13;77.81;101588.28;5055916;28;20032;-96
2023/08/13 09:09:55;;;;;;;3.63;1.63;;;;;;;21.33;78.24;101605.81;5055660;28;20065;-94
2023/08/13 09:12:41;;;;;;;6.00;1.80;;;;;;;21.31;74.99;101599.75;5054468;28;20063;-96
2023/08/13 09:15:11;;;;;;;2.40;1.70;;;;;;;21.33;75.27;101602.34;5033762;28;20033;-89
2023/08/13 09:17:38;;;;;;;1.83;1.42;;;;;;;21.41;78.38;101597.53;5035745;28;20033;-93
2023/08/13 09:20:17;;;;;;;2.50;1.30;;;;;;;21.54;77.97;101597.75;5034297;28;20112;-95
2023/08/13 09:22:50;;;;;;;2.35;1.35;;;;;;;21.68;78.24;101602.38;5034460;28;20044;-80
2023/08/13 09:25:16;;;;;;;2.22;1.10;;;;;;;21.78;76.42;101597.50;5037059;28;20056;-94
2023/08/13 09:27:42;;;;;;;2.90;1.40;;;;;;;21.89;76.73;101587.25;5038284;28;20021;-91
2023/08/13 09:30:12;;;;;;;2.07;1.13;;;;;;;22.08;75.40;101588.91;5053744;28;20025;-93
2023/08/13 09:32:38;;;;;;;5.30;1.75;;;;;;;22.21;75.46;101590.88;5056425;28;20365;-93
2023/08/13 09:35:04;;;;;;;2.78;1.70;;;;;;;22.25;72.03;101585.38;5059449;28;20048;-93
2023/08/13 09:37:30;;;;;;;3.30;1.77;;;;;;;22.27;73.62;101586.16;5062640;28;20017;-93
2023/08/13 09:39:56;;;;;;;1.65;1.45;;;;;;;22.23;70.99;101579.34;5061671;28;20025;-94
2023/08/13 09:42:25;;;;;;;3.50;1.85;;;;;;;22.19;70.54;101576.88;5053180;28;20048;-94
2023/08/13 09:44:56;;;;;;;3.03;1.60;;;;;;;22.25;71.12;101565.09;5050891;28;20032;-96
2023/08/13 09:47:25;;;;;;;2.17;1.60;;;;;;;22.34;70.26;101563.78;5053903;28;20031;-94
2023/08/13 09:49:52;;;;;;;1.95;1.50;;;;;;;22.48;72.40;101571.81;5054126;28;20017;-94
2023/08/13 09:52:22;;;;;;;1.83;1.50;;;;;;;22.65;72.42;101555.03;5054324;28;20021;-94
2023/08/13 09:54:52;;;;;;;1.52;1.23;;;;;;;22.87;71.33;101561.78;5063577;28;20017;-91
2023/08/13 09:57:22;;;;;;;3.35;1.60;;;;;;;22.98;70.17;101556.72;5053645;28;20108;-92
2023/08/13 09:59:49;;;;;;;3.05;1.50;;;;;;;23.13;71.00;101567.41;5054097;28;20033;-92
2023/08/13 10:02:14;;;;;;;2.88;1.50;;;;;;;23.23;66.11;101547.41;5053605;28;20462;-93
2023/08/13 10:04:41;;;;;;;4.97;1.90;;;;;;;23.32;67.02;101551.34;5053953;28;20163;-91
2023/08/13 10:07:06;;;;;;;;;;;;;;;23.38;69.30;101558.06;5054228;28;20323;-92
2023/08/13 10:09:32;;;;;;;;;;;;;;;23.40;66.41;101554.38;5072518;28;19921;-91
2023/08/13 10:12:09;;;;;;;6.30;2.08;;;;;;;23.41;65.38;101555.25;5054662;28;19917;-91
2023/08/13 10:14:38;;;;;;;4.65;2.00;;;;;;;23.40;64.44;101550.91;5053915;28;20428;-94
2023/08/13 10:17:06;;;;;;;4.45;1.80;;;;;;;23.48;67.59;101545.13;5054237;28;20029;-92
2023/08/13 10:19:37;;;;;;;3.65;1.73;;;;;;;23.49;65.79;101550.34;5054056;28;20025;-93
2023/08/13 10:22:02;;;;;;;3.97;1.67;;;;;;;23.63;65.74;101554.00;5053111;28;20032;-93
2023/08/13 10:24:29;;;;;;;3.80;1.80;;;;;;;23.68;66.31;101551.91;5053692;28;20028;-92
2023/08/13 10:26:54;;;;;;;3.30;1.60;;;;;;;23.71;65.07;101549.06;5052747;28;20056;-91
2023/08/13 10:29:21;;;;;;;3.10;1.80;;;;;;;23.69;63.93;101550.97;5053866;28;20052;-92
2023/08/13 10:31:59;;;;;;;2.55;1.50;;;;;;;23.67;65.48;101547.53;5053018;28;20017;-94
2023/08/13 10:34:46;;;;;;;2.75;1.40;;;;;;;23.67;66.66;101548.41;5053591;28;20021;-92
2023/08/13 10:37:23;;;;;;;1.85;1.40;;;;;;;23.57;66.92;101545.44;5053200;28;20033;-93
2023/08/13 10:39:57;;;;;;;2.33;1.50;;;;;;;23.46;63.19;101542.56;5053401;28;20025;-93
2023/08/13 10:42:33;;;;;;;2.88;1.50;;;;;;;23.33;67.14;101542.44;5053099;28;20031;-93
2023/08/13 10:45:08;;;;;;;3.67;1.25;;;;;;;23.35;69.07;101539.69;5054804;28;20025;-92
2023/08/13 10:47:45;;;;;;;2.15;1.30;;;;;;;23.59;65.23;101538.25;5053684;28;20032;-93
2023/08/13 10:50:15;;;;;;;3.30;1.50;;;;;;;23.79;65.01;101538.03;5053726;28;20041;-95
2023/08/13 10:52:41;;;;;;;2.00;1.40;;;;;;;23.96;64.81;101534.38;5054409;28;20041;-93
2023/08/13 10:55:09;;;;;;;3.50;1.65;;;;;;;23.93;64.65;101537.16;5053892;28;20021;-94
2023/08/13 10:57:34;;;;;;;3.25;1.70;;;;;;;24.01;64.30;101519.88;5054469;28;20040;-96
2023/08/13 11:00:01;;;;;;;3.30;1.90;;;;;;;24.26;65.45;101528.97;5055320;28;20020;-95
2023/08/13 11:02:32;;;;;;;2.58;1.55;;;;;;;24.46;65.79;101524.22;5057212;28;20029;-93
2023/08/13 11:04:57;;;;;;;4.40;1.85;;;;;;;24.58;62.73;101522.56;5057658;28;20037;-93
2023/08/13 11:07:23;;;;;;;1.95;1.40;;;;;;;24.65;63.72;101531.84;5070652;28;20049;-93
2023/08/13 11:09:49;;;;;;;3.20;1.77;;;;;;;24.61;62.93;101525.88;5060869;28;20060;-93
2023/08/13 11:12:15;;;;;;;2.60;1.40;;;;;;;24.58;64.85;101527.88;5058240;28;20021;-94
2023/08/13 11:14:40;;;;;;;4.38;1.60;;;;;;;24.52;63.12;101515.84;5057639;28;20056;-89
2023/08/13 11:17:06;;;;;;;2.42;1.80;;;;;;;24.58;63.03;101519.91;5056823;28;20494;-92
2023/08/13 11:19:32;;;;;;;3.08;1.60;;;;;;;24.65;63.11;101522.06;5055500;28;20040;-87
2023/08/13 11:21:59;;;;;;;2.72;1.63;;;;;;;24.66;63.18;101518.47;5056628;28;20032;-95
2023/08/13 11:24:24;;;;;;;1.60;1.30;;;;;;;24.62;64.50;101529.38;5055124;28;20025;-92
2023/08/13 11:26:51;;;;;;;1.30;1.20;;;;;;;24.63;64.63;101523.97;5056790;28;20040;-93